createdAt,value
2019-02-03T00:00:46.259Z,5.50
2019-02-03T00:03:13.875Z,5.60
2019-02-03T00:05:41.447Z,5.80
2019-02-03T00:08:09.025Z,5.70
2019-02-03T00:10:38.811Z,5.30
2019-02-03T00:13:06.573Z,5.30
2019-02-03T00:15:34.152Z,5.20
2019-02-03T00:18:01.830Z,5.10
2019-02-03T00:20:29.413Z,5.10
2019-02-03T00:22:56.996Z,5.00
2019-02-03T00:25:25.525Z,5.00
2019-02-03T00:27:53.091Z,5.00
2019-02-03T00:30:21.594Z,4.90
2019-02-03T00:32:51.535Z,4.80
2019-02-03T00:35:16.972Z,4.80
2019-02-03T00:37:44.540Z,4.80
2019-02-03T00:40:13.031Z,4.70
2019-02-03T00:42:40.606Z,4.70
2019-02-03T00:45:08.180Z,4.70
2019-02-03T00:47:35.754Z,4.70
2019-02-03T00:50:04.232Z,4.60
2019-02-03T00:52:31.830Z,4.70
2019-02-03T00:54:59.412Z,4.80
2019-02-03T00:57:27.752Z,4.70
2019-02-03T00:59:55.329Z,4.60
2019-02-03T01:02:22.902Z,4.70
2019-02-03T01:04:50.498Z,4.60
2019-02-03T01:07:27.277Z,4.70
2019-02-03T01:09:45.718Z,4.70
2019-02-03T01:12:13.292Z,4.50
2019-02-03T01:14:40.868Z,4.70
2019-02-03T01:17:08.656Z,4.70
2019-02-03T01:19:36.288Z,4.60
2019-02-03T01:22:03.860Z,4.70
2019-02-03T01:24:33.133Z,4.70
2019-02-03T01:27:01.692Z,4.70
2019-02-03T01:29:29.263Z,4.60
2019-02-03T01:31:56.847Z,4.50
2019-02-03T01:34:24.480Z,4.60
2019-02-03T01:36:52.060Z,4.60
2019-02-03T01:39:19.632Z,4.60
2019-02-03T01:41:47.203Z,4.60
2019-02-03T01:44:14.779Z,4.60
2019-02-03T01:46:43.297Z,4.50
2019-02-03T01:49:10.868Z,4.50
2019-02-03T01:51:38.447Z,4.40
2019-02-03T01:54:07.947Z,4.30
2019-02-03T01:56:35.531Z,4.30
2019-02-03T01:59:03.105Z,4.30
2019-02-03T02:01:30.688Z,4.60
2019-02-03T02:03:59.177Z,4.70
2019-02-03T02:06:26.752Z,4.80
2019-02-03T02:08:54.323Z,4.70
2019-02-03T02:11:21.896Z,4.50
2019-02-03T02:13:49.469Z,4.40
2019-02-03T02:16:18.992Z,4.20
2019-02-03T02:18:46.563Z,4.30
2019-02-03T02:21:16.116Z,4.30
2019-02-03T02:23:43.688Z,4.20
2019-02-03T02:26:11.264Z,4.30
2019-02-03T02:28:38.844Z,4.50
2019-02-03T02:31:06.416Z,4.40
2019-02-03T02:33:34.765Z,4.20
2019-02-03T02:36:03.155Z,4.40
2019-02-03T02:38:30.724Z,4.40
2019-02-03T02:40:58.301Z,4.30
2019-02-03T02:43:25.871Z,4.50
2019-02-03T02:45:53.560Z,4.60
2019-02-03T02:48:21.137Z,4.60
2019-02-03T02:50:50.619Z,4.70
2019-02-03T02:53:18.193Z,4.50
2019-02-03T02:55:45.781Z,4.30
2019-02-03T02:58:13.457Z,4.50
2019-02-03T03:00:40.987Z,4.50
2019-02-03T03:03:08.572Z,4.10
2019-02-03T03:05:36.155Z,3.90
2019-02-03T03:08:04.541Z,3.80
2019-02-03T03:10:32.134Z,3.80
2019-02-03T03:12:59.704Z,4.00
2019-02-03T03:15:28.227Z,4.00
2019-02-03T03:17:55.817Z,3.70
2019-02-03T03:20:23.409Z,3.70
2019-02-03T03:22:51.036Z,3.90
2019-02-03T03:25:18.618Z,4.00
2019-02-03T03:27:46.204Z,4.20
2019-02-03T03:30:22.466Z,4.40
2019-02-03T03:32:50.161Z,4.10
2019-02-03T03:35:17.715Z,4.20
2019-02-03T03:37:45.327Z,4.30
2019-02-03T03:40:14.005Z,4.20
2019-02-03T03:42:41.586Z,4.10
2019-02-03T03:45:09.160Z,4.30
2019-02-03T03:47:36.929Z,4.30
2019-02-03T03:50:06.305Z,4.20
2019-02-03T03:52:33.929Z,4.00
2019-02-03T03:55:01.506Z,3.70
2019-02-03T03:57:29.103Z,4.00
2019-02-03T03:59:56.694Z,4.10
2019-02-03T04:02:24.372Z,4.30
2019-02-03T04:04:51.908Z,4.40
2019-02-03T04:07:19.532Z,4.50
2019-02-03T04:09:47.100Z,4.50
2019-02-03T04:12:14.685Z,4.50
2019-02-03T04:14:43.036Z,4.10
2019-02-03T04:17:10.619Z,4.00
2019-02-03T04:19:38.192Z,4.00
2019-02-03T04:22:05.764Z,4.00
2019-02-03T04:24:33.382Z,3.80
2019-02-03T04:27:02.898Z,3.90
2019-02-03T04:29:30.483Z,4.20
2019-02-03T04:31:58.938Z,4.10
2019-02-03T04:34:29.752Z,4.00
2019-02-03T04:36:54.132Z,4.10
2019-02-03T04:39:21.752Z,3.70
2019-02-03T04:41:49.324Z,3.80
2019-02-03T04:44:16.897Z,4.00
2019-02-03T04:46:44.476Z,4.10
2019-02-03T04:49:12.049Z,4.00
2019-02-03T04:51:40.401Z,3.90
2019-02-03T04:54:07.984Z,3.90
2019-02-03T04:56:35.566Z,4.00
2019-02-03T04:59:03.150Z,4.10
2019-02-03T05:01:31.659Z,4.00
2019-02-03T05:03:59.232Z,3.70
2019-02-03T05:06:27.740Z,3.20
2019-02-03T05:08:55.313Z,3.00
2019-02-03T05:11:22.888Z,3.00
2019-02-03T05:13:50.466Z,3.10
2019-02-03T05:16:19.932Z,3.00
2019-02-03T05:18:47.510Z,3.00
2019-02-03T05:21:15.084Z,3.20
2019-02-03T05:23:42.810Z,3.00
2019-02-03T05:26:10.270Z,3.00
2019-02-03T05:28:37.865Z,3.10
2019-02-03T05:31:05.444Z,3.10
2019-02-03T05:33:33.024Z,3.10
2019-02-03T05:36:00.587Z,3.20
2019-02-03T05:38:28.190Z,3.30
2019-02-03T05:40:55.770Z,3.30
2019-02-03T05:43:24.120Z,3.40
2019-02-03T05:45:51.688Z,3.40
2019-02-03T05:48:19.264Z,3.30
2019-02-03T05:50:46.841Z,3.50
2019-02-03T05:53:14.434Z,3.40
2019-02-03T05:55:42.006Z,3.30
2019-02-03T05:58:12.312Z,3.20
2019-02-03T06:00:39.893Z,3.20
2019-02-03T06:03:07.472Z,3.30
2019-02-03T06:05:35.048Z,3.50
2019-02-03T06:08:02.630Z,3.10
2019-02-03T06:10:30.220Z,3.00
2019-02-03T06:12:57.832Z,3.30
2019-02-03T06:15:25.423Z,3.20
2019-02-03T06:17:54.050Z,3.00
2019-02-03T06:20:24.325Z,3.00
2019-02-03T06:22:51.896Z,2.90
2019-02-03T06:25:20.478Z,2.90
2019-02-03T06:27:48.104Z,2.70
2019-02-03T06:33:32.817Z,2.80
2019-02-03T06:36:00.409Z,3.00
2019-02-03T06:38:27.984Z,3.00
2019-02-03T06:40:57.476Z,2.90
2019-02-03T06:43:25.045Z,3.00
2019-02-03T06:45:52.616Z,3.00
2019-02-03T06:48:20.232Z,3.00
2019-02-03T06:50:47.817Z,2.80
2019-02-03T06:53:16.145Z,3.10
2019-02-03T06:55:43.723Z,3.10
2019-02-03T06:58:11.287Z,2.90
2019-02-03T07:00:38.864Z,2.80
2019-02-03T07:03:07.216Z,2.80
2019-02-03T07:05:34.781Z,2.70
2019-02-03T07:08:02.385Z,2.50
2019-02-03T07:10:31.901Z,2.60
2019-02-03T07:12:59.481Z,2.50
2019-02-03T07:15:27.064Z,2.80
2019-02-03T07:17:56.548Z,2.70
2019-02-03T07:20:24.129Z,2.60
2019-02-03T07:22:53.412Z,2.70
2019-02-03T07:25:20.989Z,2.70
2019-02-03T07:27:48.564Z,2.60
2019-02-03T07:30:18.972Z,2.70
2019-02-03T07:32:46.543Z,2.60
2019-02-03T07:35:14.122Z,2.70
2019-02-03T07:37:41.701Z,2.60
2019-02-03T07:40:15.728Z,2.70
2019-02-03T07:42:43.314Z,2.60
2019-02-03T07:45:10.889Z,2.40
2019-02-03T07:47:38.462Z,2.30
2019-02-03T07:50:07.764Z,2.10
2019-02-03T07:52:35.340Z,2.30
2019-02-03T07:55:02.965Z,2.40
2019-02-03T07:57:30.541Z,2.30
2019-02-03T07:59:58.116Z,2.30
2019-02-03T08:02:25.694Z,2.50
2019-02-03T08:04:53.318Z,2.50
2019-02-03T08:07:20.891Z,2.40
2019-02-03T08:09:48.463Z,2.50
2019-02-03T08:12:16.964Z,2.50
2019-02-03T08:14:44.549Z,2.60
2019-02-03T08:17:13.061Z,2.20
2019-02-03T08:19:40.649Z,2.30
2019-02-03T08:22:08.232Z,2.10
2019-02-03T08:24:35.810Z,2.30
2019-02-03T08:27:03.399Z,2.40
2019-02-03T08:29:32.904Z,2.10
2019-02-03T08:32:00.476Z,1.90
2019-02-03T08:34:28.062Z,2.20
2019-02-03T08:36:55.680Z,2.10
2019-02-03T08:39:23.265Z,2.10
2019-02-03T08:41:50.839Z,2.30
2019-02-03T08:44:18.417Z,2.20
2019-02-03T08:46:46.959Z,2.50
2019-02-03T08:49:14.536Z,2.60
2019-02-03T08:51:42.119Z,2.80
2019-02-03T08:54:09.712Z,2.70
2019-02-03T08:56:37.289Z,2.60
2019-02-03T08:59:04.866Z,2.70
2019-02-03T09:01:32.436Z,2.40
2019-02-03T09:04:00.005Z,2.40
2019-02-03T09:06:29.480Z,2.40
2019-02-03T09:08:57.111Z,2.50
2019-02-03T09:11:24.707Z,2.40
2019-02-03T09:13:52.286Z,2.50
2019-02-03T09:16:19.864Z,2.60
2019-02-03T09:18:48.372Z,2.50
2019-02-03T09:21:15.952Z,2.60
2019-02-03T09:23:43.567Z,2.40
2019-02-03T09:26:11.148Z,2.40
2019-02-03T09:28:38.730Z,2.40
2019-02-03T09:31:07.344Z,2.40
2019-02-03T09:33:34.911Z,2.50
2019-02-03T09:36:02.483Z,2.20
2019-02-03T09:38:30.064Z,2.40
2019-02-03T09:41:00.329Z,2.20
2019-02-03T09:43:26.798Z,2.00
2019-02-03T09:45:54.385Z,2.00
2019-02-03T09:48:22.084Z,2.20
2019-02-03T09:50:51.686Z,2.20
2019-02-03T09:53:19.264Z,2.20
2019-02-03T09:55:46.884Z,1.90
2019-02-03T09:58:14.520Z,2.20
2019-02-03T10:00:42.085Z,2.10
2019-02-03T10:03:10.421Z,2.20
2019-02-03T10:05:38.011Z,2.20
2019-02-03T10:08:05.631Z,1.80
2019-02-03T10:10:34.955Z,2.00
2019-02-03T10:13:02.544Z,2.00
2019-02-03T10:15:30.136Z,1.80
2019-02-03T10:17:57.720Z,1.80
2019-02-03T10:20:26.329Z,1.70
2019-02-03T10:22:54.683Z,1.60
2019-02-03T10:25:24.965Z,1.90
2019-02-03T10:27:52.546Z,1.80
2019-02-03T10:30:21.141Z,2.00
2019-02-03T10:32:48.721Z,1.80
2019-02-03T10:35:23.505Z,1.70
2019-02-03T10:37:45.855Z,1.90
2019-02-03T10:40:14.185Z,2.10
2019-02-03T10:42:41.776Z,2.10
2019-02-03T10:45:09.374Z,2.00
2019-02-03T10:47:36.949Z,1.90
2019-02-03T10:50:04.529Z,2.00
2019-02-03T10:52:32.109Z,2.20
2019-02-03T10:54:59.761Z,2.10
2019-02-03T10:57:27.316Z,2.00
2019-02-03T10:59:55.709Z,1.90
2019-02-03T11:02:23.308Z,1.90
2019-02-03T11:04:50.894Z,1.90
2019-02-03T11:07:18.476Z,1.80
2019-02-03T11:09:46.065Z,1.80
2019-02-03T11:12:13.660Z,1.80
2019-02-03T11:14:41.249Z,1.70
2019-02-03T11:17:08.880Z,1.70
2019-02-03T11:19:36.469Z,1.70
2019-02-03T11:22:04.057Z,1.60
2019-02-03T11:24:32.410Z,1.60
2019-02-03T11:26:59.996Z,1.60
2019-02-03T11:29:27.703Z,1.50
2019-02-03T11:31:55.300Z,1.60
2019-02-03T11:34:24.844Z,1.50
2019-02-03T11:36:52.429Z,1.40
2019-02-03T11:39:20.026Z,1.70
2019-02-03T11:41:49.629Z,1.80
2019-02-03T11:44:18.096Z,1.50
2019-02-03T11:46:45.676Z,1.60
2019-02-03T11:49:13.260Z,1.50
2019-02-03T11:51:41.818Z,1.50
2019-02-03T11:54:09.408Z,1.50
2019-02-03T11:56:36.996Z,1.50
2019-02-03T11:59:04.572Z,1.50
2019-02-03T12:01:32.152Z,1.60
2019-02-03T12:03:59.750Z,1.80
2019-02-03T12:06:27.393Z,1.60
2019-02-03T12:08:54.977Z,1.70
2019-02-03T12:11:22.560Z,1.70
2019-02-03T12:13:50.141Z,1.70
2019-02-03T12:16:18.480Z,1.80
2019-02-03T12:18:46.065Z,1.80
2019-02-03T12:21:13.689Z,1.80
2019-02-03T12:23:41.280Z,2.00
2019-02-03T12:26:08.861Z,2.10
2019-02-03T12:28:38.394Z,2.10
2019-02-03T12:31:05.993Z,2.20
2019-02-03T12:33:33.568Z,2.30
2019-02-03T12:36:01.272Z,2.10
2019-02-03T12:38:28.840Z,2.00
2019-02-03T12:40:58.329Z,2.00
2019-02-03T12:43:25.914Z,2.10
2019-02-03T12:45:54.499Z,2.10
2019-02-03T12:48:22.240Z,2.10
2019-02-03T12:50:50.203Z,2.10
2019-02-03T12:53:17.780Z,2.20
2019-02-03T12:55:45.360Z,2.20
2019-02-03T12:58:12.945Z,2.10
2019-02-03T13:00:40.644Z,2.20
2019-02-03T13:03:08.216Z,2.60
2019-02-03T13:05:35.798Z,2.60
2019-02-03T13:08:03.416Z,2.50
2019-02-03T13:10:33.015Z,2.30
2019-02-03T13:13:00.594Z,2.10
2019-02-03T13:15:29.809Z,2.10
2019-02-03T13:17:57.383Z,1.90
2019-02-03T13:20:25.028Z,2.30
2019-02-03T13:22:52.692Z,2.40
2019-02-03T13:25:20.264Z,2.20
2019-02-03T13:27:49.883Z,2.40
2019-02-03T13:30:33.146Z,2.30
2019-02-03T13:33:02.649Z,2.40
2019-02-03T13:35:30.233Z,2.50
2019-02-03T13:37:57.817Z,2.80
2019-02-03T13:40:25.401Z,2.80
2019-02-03T13:42:52.976Z,2.60
2019-02-03T13:45:21.215Z,2.70
2019-02-03T13:47:48.184Z,2.40
2019-02-03T13:50:15.761Z,2.50
2019-02-03T13:52:43.349Z,2.90
2019-02-03T13:55:11.697Z,3.10
2019-02-03T13:57:39.277Z,3.00
2019-02-03T14:00:12.260Z,3.10
2019-02-03T14:02:39.980Z,2.90
2019-02-03T14:05:07.564Z,2.40
2019-02-03T14:07:37.088Z,2.50
2019-02-03T14:10:02.774Z,2.50
2019-02-03T14:12:30.366Z,2.80
2019-02-03T14:14:58.716Z,2.80
2019-02-03T14:17:26.292Z,2.80
2019-02-03T14:19:53.863Z,3.00
2019-02-03T14:22:23.339Z,3.20
2019-02-03T14:24:50.913Z,3.10
2019-02-03T14:27:20.407Z,3.00
2019-02-03T14:29:47.993Z,3.00
2019-02-03T14:32:15.576Z,3.00
2019-02-03T14:34:43.152Z,2.90
2019-02-03T14:37:10.731Z,2.70
2019-02-03T14:39:38.310Z,2.90
2019-02-03T14:42:05.897Z,3.10
2019-02-03T14:44:33.480Z,3.10
2019-02-03T14:47:01.055Z,3.20
2019-02-03T14:49:28.679Z,2.70
2019-02-03T14:51:58.184Z,2.60
2019-02-03T14:56:59.815Z,2.30
2019-02-03T14:59:27.385Z,2.30
2019-02-03T15:01:55.740Z,2.60
2019-02-03T15:04:24.080Z,2.80
2019-02-03T15:06:51.668Z,2.80
2019-02-03T15:09:21.939Z,2.40
2019-02-03T15:11:47.701Z,2.40
2019-02-03T15:14:15.284Z,2.70
2019-02-03T15:16:42.895Z,2.90
2019-02-03T15:19:10.467Z,2.60
2019-02-03T15:21:38.032Z,2.30
2019-02-03T15:24:16.062Z,2.40
2019-02-03T15:26:33.233Z,2.60
2019-02-03T15:29:01.125Z,2.80
2019-02-03T15:31:28.712Z,2.60
2019-02-03T15:33:58.256Z,2.80
2019-02-03T15:36:25.836Z,2.50
2019-02-03T15:38:53.456Z,2.20
2019-02-03T15:41:22.030Z,2.40
2019-02-03T15:43:50.515Z,2.20
2019-02-03T15:46:18.097Z,2.00
2019-02-03T15:48:45.687Z,1.90
2019-02-03T15:51:14.032Z,2.10
2019-02-03T15:53:41.613Z,2.10
2019-02-03T15:56:09.195Z,2.20
2019-02-03T15:58:36.780Z,2.40
2019-02-03T16:01:04.371Z,2.60
2019-02-03T16:03:33.915Z,2.40
2019-02-03T16:06:01.502Z,2.40
2019-02-03T16:08:29.084Z,2.60
2019-02-03T16:10:56.665Z,2.60
2019-02-03T16:13:36.482Z,2.80
2019-02-03T16:15:52.790Z,2.60
2019-02-03T16:18:20.363Z,2.30
2019-02-03T16:20:48.711Z,2.40
2019-02-03T16:23:16.308Z,2.40
2019-02-03T16:25:43.879Z,2.50
2019-02-03T16:28:13.407Z,2.10
2019-02-03T16:30:41.015Z,2.10
2019-02-03T16:33:09.514Z,2.10
2019-02-03T16:35:37.927Z,2.00
2019-02-03T16:38:05.517Z,2.00
2019-02-03T16:40:34.092Z,2.20
2019-02-03T16:43:01.673Z,2.20
2019-02-03T16:45:30.018Z,2.10
2019-02-03T16:47:57.599Z,2.10
2019-02-03T16:50:25.262Z,2.10
2019-02-03T16:52:52.833Z,2.10
2019-02-03T16:55:20.532Z,2.10
2019-02-03T16:57:48.121Z,2.10
2019-02-03T17:00:19.916Z,1.90
2019-02-03T17:02:47.505Z,1.80
2019-02-03T17:05:25.200Z,2.00
2019-02-03T17:07:42.708Z,2.10
2019-02-03T17:10:11.095Z,2.00
2019-02-03T17:12:39.635Z,2.10
2019-02-03T17:18:02.601Z,2.00
2019-02-03T17:20:31.260Z,2.00
2019-02-03T17:22:58.840Z,2.00
2019-02-03T17:25:33.523Z,2.00
2019-02-03T17:28:00.955Z,2.00
2019-02-03T17:30:28.572Z,2.00
2019-02-03T17:32:56.160Z,2.00
2019-02-03T17:35:23.800Z,2.00
2019-02-03T17:37:51.501Z,1.90
2019-02-03T17:40:19.088Z,1.90
2019-02-03T17:42:46.669Z,1.90
2019-02-03T17:45:15.948Z,2.00
2019-02-03T17:47:43.568Z,2.00
2019-02-03T17:50:11.149Z,1.90
2019-02-03T17:52:39.298Z,2.00
2019-02-03T17:55:06.352Z,2.00
2019-02-03T17:57:35.868Z,2.10
2019-02-03T18:00:05.145Z,2.00
2019-02-03T18:02:33.948Z,2.00
2019-02-03T18:05:00.397Z,2.20
2019-02-03T18:07:27.980Z,2.20
2019-02-03T18:09:57.287Z,2.00
2019-02-03T18:12:25.632Z,2.10
2019-02-03T18:14:53.213Z,2.10
2019-02-03T18:17:22.780Z,2.30
2019-02-03T18:19:52.276Z,2.40
2019-02-03T18:22:19.853Z,2.20
2019-02-03T18:24:47.432Z,2.20
2019-02-03T18:27:16.983Z,2.20
2019-02-03T18:29:44.562Z,2.20
2019-02-03T18:32:14.679Z,2.20
2019-02-03T18:34:40.596Z,2.20
2019-02-03T18:37:08.175Z,2.20
2019-02-03T18:39:36.198Z,2.20
2019-02-03T18:42:03.780Z,2.20
2019-02-03T18:44:36.163Z,2.20
2019-02-03T18:47:00.949Z,2.10
2019-02-03T18:49:28.562Z,2.20
2019-02-03T18:51:56.350Z,2.20
2019-02-03T18:54:23.960Z,2.10
2019-02-03T18:56:51.736Z,2.10
2019-02-03T18:59:19.314Z,2.10
2019-02-03T19:01:46.914Z,2.10
2019-02-03T19:04:14.532Z,2.10
2019-02-03T19:06:42.104Z,2.20
2019-02-03T19:09:09.690Z,2.20
2019-02-03T19:11:37.266Z,2.20
2019-02-03T19:14:04.835Z,2.20
2019-02-03T19:16:32.413Z,2.20
2019-02-03T19:19:00.097Z,2.20
2019-02-03T19:21:27.764Z,2.20
2019-02-03T19:23:55.305Z,2.20
2019-02-03T19:26:24.823Z,2.30
2019-02-03T19:28:52.399Z,2.20
2019-02-03T19:31:20.217Z,2.20
2019-02-03T19:33:47.795Z,2.30
2019-02-03T19:36:15.421Z,2.40
2019-02-03T19:38:42.994Z,2.50
2019-02-03T19:41:10.581Z,2.50
2019-02-03T19:43:38.169Z,2.40
2019-02-03T19:46:05.765Z,2.50
2019-02-03T19:48:33.350Z,2.30
2019-02-03T19:51:01.873Z,2.50
2019-02-03T19:53:29.455Z,2.40
2019-02-03T19:55:57.040Z,2.30
2019-02-03T19:58:24.628Z,2.40
2019-02-03T20:00:52.209Z,2.70
2019-02-03T20:03:19.790Z,2.60
2019-02-03T20:05:47.621Z,2.70
2019-02-03T20:08:15.243Z,2.80
2019-02-03T20:10:43.197Z,2.90
2019-02-03T20:13:10.817Z,2.70
2019-02-03T20:15:38.407Z,2.70
2019-02-03T20:18:05.983Z,2.70
2019-02-03T20:20:34.860Z,2.50
2019-02-03T20:23:02.464Z,2.50
2019-02-03T20:25:31.065Z,2.40
2019-02-03T20:27:58.644Z,2.50
2019-02-03T20:30:37.957Z,2.60
2019-02-03T20:32:54.753Z,2.60
2019-02-03T20:35:22.335Z,2.50
2019-02-03T20:37:49.925Z,2.50
2019-02-03T20:40:19.989Z,2.50
2019-02-03T20:42:48.333Z,2.50
2019-02-03T20:45:21.292Z,2.50
2019-02-03T20:47:43.586Z,2.50
2019-02-03T20:50:12.631Z,2.50
2019-02-03T20:52:40.377Z,2.40
2019-02-03T20:55:08.981Z,2.40
2019-02-03T20:57:36.573Z,2.40
2019-02-03T21:00:08.384Z,2.30
2019-02-03T21:02:36.896Z,2.30
2019-02-03T21:05:07.153Z,2.30
2019-02-03T21:07:34.732Z,2.30
2019-02-03T21:10:02.307Z,2.30
2019-02-03T21:12:29.885Z,2.30
2019-02-03T21:14:57.468Z,2.20
2019-02-03T21:17:25.048Z,2.20
2019-02-03T21:19:53.130Z,2.20
2019-02-03T21:22:20.708Z,2.20
2019-02-03T21:24:49.329Z,2.20
2019-02-03T21:27:16.970Z,2.20
2019-02-03T21:29:44.557Z,2.10
2019-02-03T21:32:14.062Z,2.20
2019-02-03T21:34:41.854Z,2.20
2019-02-03T21:37:09.432Z,2.20
2019-02-03T21:39:37.008Z,2.10
2019-02-03T21:42:04.582Z,2.10
2019-02-03T21:44:32.168Z,2.10
2019-02-03T21:46:59.752Z,2.00
2019-02-03T21:49:27.324Z,2.00
2019-02-03T21:51:54.905Z,2.00
2019-02-03T21:54:23.249Z,1.80
2019-02-03T21:56:50.825Z,1.80
2019-02-03T21:59:19.412Z,1.90
2019-02-03T22:01:47.000Z,1.90
2019-02-03T22:04:14.585Z,1.80
2019-02-03T22:06:42.156Z,1.80
2019-02-03T22:09:09.741Z,1.80
2019-02-03T22:11:37.327Z,1.70
2019-02-03T22:14:04.913Z,1.70
2019-02-03T22:16:32.490Z,1.70
2019-02-03T22:19:00.890Z,1.70
2019-02-03T22:21:29.592Z,1.70
2019-02-03T22:23:57.940Z,1.60
2019-02-03T22:26:26.444Z,1.60
2019-02-03T22:28:54.020Z,1.60
2019-02-03T22:31:21.606Z,1.60
2019-02-03T22:33:49.181Z,1.70
2019-02-03T22:36:16.778Z,1.70
2019-02-03T22:38:45.128Z,1.60
2019-02-03T22:41:12.701Z,1.60
2019-02-03T22:43:40.280Z,1.60
2019-02-03T22:46:07.917Z,1.50
2019-02-03T22:48:36.492Z,1.50
2019-02-03T22:51:04.069Z,1.50
2019-02-03T22:53:33.608Z,1.30
2019-02-03T22:56:02.173Z,1.20
2019-02-03T22:58:29.763Z,1.20
2019-02-03T23:00:58.153Z,1.30
2019-02-03T23:03:30.306Z,1.20
2019-02-03T23:05:57.893Z,1.20
2019-02-03T23:08:25.479Z,1.30
2019-02-03T23:10:53.055Z,1.30
2019-02-03T23:13:20.640Z,1.20
2019-02-03T23:15:48.259Z,1.20
2019-02-03T23:18:15.883Z,1.30
2019-02-03T23:20:43.458Z,1.30
2019-02-03T23:23:11.041Z,1.30
2019-02-03T23:25:38.612Z,1.30
2019-02-03T23:28:06.197Z,1.30
2019-02-03T23:30:33.772Z,1.30
2019-02-03T23:33:01.352Z,1.30
2019-02-03T23:35:28.936Z,1.20
2019-02-03T23:37:58.493Z,1.30
2019-02-03T23:40:26.992Z,1.30
2019-02-03T23:42:54.572Z,1.30
2019-02-03T23:45:22.160Z,1.40
2019-02-03T23:47:49.788Z,1.40
2019-02-03T23:50:18.416Z,1.30
2019-02-03T23:52:46.017Z,1.10
2019-02-03T23:55:13.600Z,1.10
2019-02-03T23:57:41.193Z,1.10
